sensor_id;sensor_type;location;lat;lon;timestamp;pressure;altitude;pressure_sealevel;temperature;humidity
35918;BME280;22011;59.912;30.300;2023-01-27T00:00:49;101731.69;;;2.80;67.89
35918;BME280;22011;59.912;30.300;2023-01-27T00:03:17;101731.88;;;2.77;67.49
35918;BME280;22011;59.912;30.300;2023-01-27T00:05:45;101733.75;;;2.75;66.29
35918;BME280;22011;59.912;30.300;2023-01-27T00:08:13;101729.59;;;2.71;66.45
35918;BME280;22011;59.912;30.300;2023-01-27T00:10:41;101726.03;;;2.72;65.96
35918;BME280;22011;59.912;30.300;2023-01-27T00:13:10;101732.31;;;2.70;67.44
35918;BME280;22011;59.912;30.300;2023-01-27T00:15:53;101744.72;;;2.68;66.18
35918;BME280;22011;59.912;30.300;2023-01-27T00:18:22;101743.97;;;2.66;66.79
35918;BME280;22011;59.912;30.300;2023-01-27T00:20:49;101740.84;;;2.59;67.28
35918;BME280;22011;59.912;30.300;2023-01-27T00:23:34;101745.00;;;2.63;67.74
35918;BME280;22011;59.912;30.300;2023-01-27T00:26:20;101747.53;;;2.65;67.70
35918;BME280;22011;59.912;30.300;2023-01-27T00:28:47;101748.19;;;2.68;66.03
35918;BME280;22011;59.912;30.300;2023-01-27T00:31:16;101749.72;;;2.72;66.07
35918;BME280;22011;59.912;30.300;2023-01-27T00:34:01;101746.69;;;2.64;66.44
35918;BME280;22011;59.912;30.300;2023-01-27T00:36:34;101747.03;;;2.58;67.18
35918;BME280;22011;59.912;30.300;2023-01-27T00:39:04;101752.31;;;2.58;66.30
35918;BME280;22011;59.912;30.300;2023-01-27T00:41:32;101763.84;;;2.55;66.35
35918;BME280;22011;59.912;30.300;2023-01-27T00:44:00;101763.19;;;2.52;67.19
35918;BME280;22011;59.912;30.300;2023-01-27T00:46:32;101770.59;;;2.45;67.15
35918;BME280;22011;59.912;30.300;2023-01-27T00:49:00;101765.59;;;2.41;66.67
35918;BME280;22011;59.912;30.300;2023-01-27T00:51:28;101771.34;;;2.47;65.42
35918;BME280;22011;59.912;30.300;2023-01-27T00:53:55;101774.81;;;2.48;66.21
35918;BME280;22011;59.912;30.300;2023-01-27T00:56:24;101774.81;;;2.48;66.03
35918;BME280;22011;59.912;30.300;2023-01-27T00:58:54;101778.22;;;2.50;67.24
35918;BME280;22011;59.912;30.300;2023-01-27T01:01:22;101787.22;;;2.46;66.90
35918;BME280;22011;59.912;30.300;2023-01-27T01:03:51;101783.41;;;2.36;66.84
35918;BME280;22011;59.912;30.300;2023-01-27T01:06:19;101793.34;;;2.30;67.01
35918;BME280;22011;59.912;30.300;2023-01-27T01:08:48;101789.88;;;2.30;66.31
35918;BME280;22011;59.912;30.300;2023-01-27T01:11:18;101795.81;;;2.34;66.72
35918;BME280;22011;59.912;30.300;2023-01-27T01:13:46;101799.28;;;2.34;66.58
35918;BME280;22011;59.912;30.300;2023-01-27T01:16:16;101799.09;;;2.37;67.50
35918;BME280;22011;59.912;30.300;2023-01-27T01:18:44;101796.59;;;2.66;68.06
35918;BME280;22011;59.912;30.300;2023-01-27T01:21:13;101803.09;;;2.44;67.09
35918;BME280;22011;59.912;30.300;2023-01-27T01:23:42;101809.53;;;2.39;66.80
35918;BME280;22011;59.912;30.300;2023-01-27T01:26:12;101804.09;;;2.42;67.62
35918;BME280;22011;59.912;30.300;2023-01-27T01:28:40;101810.31;;;2.41;66.92
35918;BME280;22011;59.912;30.300;2023-01-27T01:31:09;101816.50;;;2.40;67.48
35918;BME280;22011;59.912;30.300;2023-01-27T01:33:38;101807.84;;;2.38;68.03
35918;BME280;22011;59.912;30.300;2023-01-27T01:36:07;101814.97;;;2.36;67.89
35918;BME280;22011;59.912;30.300;2023-01-27T01:38:36;101809.72;;;2.36;67.04
35918;BME280;22011;59.912;30.300;2023-01-27T01:41:06;101813.44;;;2.32;66.71
35918;BME280;22011;59.912;30.300;2023-01-27T01:43:33;101812.78;;;2.28;65.88
35918;BME280;22011;59.912;30.300;2023-01-27T01:46:01;101815.50;;;2.26;67.21
35918;BME280;22011;59.912;30.300;2023-01-27T01:48:33;101813.63;;;2.28;66.63
35918;BME280;22011;59.912;30.300;2023-01-27T01:51:07;101820.00;;;2.24;67.77
35918;BME280;22011;59.912;30.300;2023-01-27T01:53:40;101825.50;;;2.20;67.73
35918;BME280;22011;59.912;30.300;2023-01-27T01:56:13;101842.28;;;2.17;67.87
35918;BME280;22011;59.912;30.300;2023-01-27T01:58:43;101841.53;;;2.15;68.47
35918;BME280;22011;59.912;30.300;2023-01-27T02:01:13;101839.75;;;2.16;68.17
35918;BME280;22011;59.912;30.300;2023-01-27T02:03:44;101843.16;;;2.18;68.31
35918;BME280;22011;59.912;30.300;2023-01-27T02:06:13;101853.06;;;2.13;67.28
35918;BME280;22011;59.912;30.300;2023-01-27T02:08:44;101844.31;;;2.12;66.49
35918;BME280;22011;59.912;30.300;2023-01-27T02:11:12;101840.53;;;2.02;66.31
35918;BME280;22011;59.912;30.300;2023-01-27T02:13:40;101839.53;;;2.05;66.99
35918;BME280;22011;59.912;30.300;2023-01-27T02:16:09;101839.25;;;2.09;67.85
35918;BME280;22011;59.912;30.300;2023-01-27T02:18:39;101849.75;;;2.09;68.19
35918;BME280;22011;59.912;30.300;2023-01-27T02:21:07;101862.16;;;2.07;67.82
35918;BME280;22011;59.912;30.300;2023-01-27T02:23:45;101869.84;;;2.10;67.55
35918;BME280;22011;59.912;30.300;2023-01-27T02:26:19;101870.13;;;2.06;67.54
35918;BME280;22011;59.912;30.300;2023-01-27T02:28:53;101872.69;;;2.07;68.11
35918;BME280;22011;59.912;30.300;2023-01-27T02:31:21;101873.69;;;2.05;66.99
35918;BME280;22011;59.912;30.300;2023-01-27T02:33:50;101867.31;;;2.09;67.99
35918;BME280;22011;59.912;30.300;2023-01-27T02:36:21;101876.25;;;2.06;68.40
35918;BME280;22011;59.912;30.300;2023-01-27T02:38:50;101878.09;;;2.04;68.34
35918;BME280;22011;59.912;30.300;2023-01-27T02:41:24;101875.03;;;2.12;69.19
35918;BME280;22011;59.912;30.300;2023-01-27T02:43:55;101881.66;;;2.03;68.14
35918;BME280;22011;59.912;30.300;2023-01-27T02:46:23;101879.28;;;1.99;69.20
35918;BME280;22011;59.912;30.300;2023-01-27T02:48:51;101882.75;;;1.99;68.93
35918;BME280;22011;59.912;30.300;2023-01-27T02:51:19;101887.84;;;2.02;69.15
35918;BME280;22011;59.912;30.300;2023-01-27T02:53:47;101898.44;;;2.01;68.98
35918;BME280;22011;59.912;30.300;2023-01-27T02:56:14;101898.69;;;1.96;69.27
35918;BME280;22011;59.912;30.300;2023-01-27T02:58:44;101901.16;;;1.99;69.33
35918;BME280;22011;59.912;30.300;2023-01-27T03:01:16;101908.38;;;1.95;68.95
35918;BME280;22011;59.912;30.300;2023-01-27T03:03:43;101906.75;;;1.93;68.64
35918;BME280;22011;59.912;30.300;2023-01-27T03:06:12;101916.72;;;1.86;68.53
35918;BME280;22011;59.912;30.300;2023-01-27T03:08:40;101909.94;;;1.82;68.69
35918;BME280;22011;59.912;30.300;2023-01-27T03:11:09;101912.81;;;1.78;68.40
35918;BME280;22011;59.912;30.300;2023-01-27T03:13:38;101906.88;;;1.74;68.83
35918;BME280;22011;59.912;30.300;2023-01-27T03:16:10;101906.88;;;1.74;69.21
35918;BME280;22011;59.912;30.300;2023-01-27T03:18:55;101922.25;;;1.64;69.24
35918;BME280;22011;59.912;30.300;2023-01-27T03:21:23;101928.91;;;1.72;68.98
35918;BME280;22011;59.912;30.300;2023-01-27T03:23:50;101924.00;;;1.81;69.64
35918;BME280;22011;59.912;30.300;2023-01-27T03:26:22;101925.94;;;1.78;68.89
35918;BME280;22011;59.912;30.300;2023-01-27T03:28:55;101926.44;;;1.69;69.89
35918;BME280;22011;59.912;30.300;2023-01-27T03:31:41;101917.84;;;1.65;70.05
35918;BME280;22011;59.912;30.300;2023-01-27T03:34:09;101921.50;;;1.62;70.02
35918;BME280;22011;59.912;30.300;2023-01-27T03:36:52;101939.75;;;1.48;69.24
35918;BME280;22011;59.912;30.300;2023-01-27T03:39:37;101927.63;;;1.46;70.06
35918;BME280;22011;59.912;30.300;2023-01-27T03:42:22;101942.97;;;1.53;69.98
35918;BME280;22011;59.912;30.300;2023-01-27T03:45:08;101933.94;;;1.59;69.99
35918;BME280;22011;59.912;30.300;2023-01-27T03:47:55;101932.06;;;1.61;70.33
35918;BME280;22011;59.912;30.300;2023-01-27T03:50:22;101934.72;;;1.61;69.94
35918;BME280;22011;59.912;30.300;2023-01-27T03:52:56;101936.47;;;1.60;69.63
35918;BME280;22011;59.912;30.300;2023-01-27T03:55:30;101943.44;;;1.61;69.71
35918;BME280;22011;59.912;30.300;2023-01-27T03:57:58;101954.09;;;1.58;69.58
35918;BME280;22011;59.912;30.300;2023-01-27T04:00:39;101946.13;;;1.60;69.74
35918;BME280;22011;59.912;30.300;2023-01-27T04:03:08;101947.75;;;1.62;69.55
35918;BME280;22011;59.912;30.300;2023-01-27T04:05:53;101955.81;;;1.59;69.64
35918;BME280;22011;59.912;30.300;2023-01-27T04:08:41;101955.09;;;1.56;69.75
35918;BME280;22011;59.912;30.300;2023-01-27T04:11:09;101956.56;;;1.44;69.57
35918;BME280;22011;59.912;30.300;2023-01-27T04:13:54;101969.88;;;1.41;69.36
35918;BME280;22011;59.912;30.300;2023-01-27T04:16:22;101980.38;;;1.41;69.65
35918;BME280;22011;59.912;30.300;2023-01-27T04:18:55;101978.34;;;1.46;69.76
35918;BME280;22011;59.912;30.300;2023-01-27T04:21:24;101992.41;;;1.45;68.96
35918;BME280;22011;59.912;30.300;2023-01-27T04:23:52;101991.50;;;1.46;69.41
35918;BME280;22011;59.912;30.300;2023-01-27T04:26:20;101989.63;;;1.48;69.14
35918;BME280;22011;59.912;30.300;2023-01-27T04:28:48;101998.28;;;1.50;68.92
35918;BME280;22011;59.912;30.300;2023-01-27T04:31:16;101996.75;;;1.46;68.96
35918;BME280;22011;59.912;30.300;2023-01-27T04:33:44;101998.59;;;1.44;69.29
35918;BME280;22011;59.912;30.300;2023-01-27T04:36:13;101987.69;;;1.35;69.11
35918;BME280;22011;59.912;30.300;2023-01-27T04:38:41;101993.94;;;1.32;69.25
35918;BME280;22011;59.912;30.300;2023-01-27T04:41:09;102001.97;;;1.29;69.17
35918;BME280;22011;59.912;30.300;2023-01-27T04:43:36;101996.88;;;1.26;69.99
35918;BME280;22011;59.912;30.300;2023-01-27T04:46:04;102000.28;;;1.28;69.99
35918;BME280;22011;59.912;30.300;2023-01-27T04:48:32;102004.69;;;1.27;69.40
35918;BME280;22011;59.912;30.300;2023-01-27T04:50:59;102005.47;;;1.29;69.54
35918;BME280;22011;59.912;30.300;2023-01-27T04:53:28;102013.56;;;1.25;69.11
35918;BME280;22011;59.912;30.300;2023-01-27T04:56:01;102012.16;;;1.18;69.43
35918;BME280;22011;59.912;30.300;2023-01-27T04:58:28;102007.13;;;1.13;69.92
35918;BME280;22011;59.912;30.300;2023-01-27T05:00:56;102009.03;;;1.10;69.65
35918;BME280;22011;59.912;30.300;2023-01-27T05:03:24;102018.16;;;1.03;69.33
35918;BME280;22011;59.912;30.300;2023-01-27T05:05:51;102025.25;;;1.01;69.37
35918;BME280;22011;59.912;30.300;2023-01-27T05:08:19;102030.66;;;0.97;69.28
35918;BME280;22011;59.912;30.300;2023-01-27T05:10:47;102041.94;;;1.00;69.76
35918;BME280;22011;59.912;30.300;2023-01-27T05:13:17;102041.38;;;0.93;69.21
35918;BME280;22011;59.912;30.300;2023-01-27T05:15:45;102038.91;;;0.90;69.09
35918;BME280;22011;59.912;30.300;2023-01-27T05:18:13;102039.59;;;0.93;69.41
35918;BME280;22011;59.912;30.300;2023-01-27T05:20:40;102045.69;;;0.94;69.22
35918;BME280;22011;59.912;30.300;2023-01-27T05:23:08;102037.53;;;1.00;69.89
35918;BME280;22011;59.912;30.300;2023-01-27T05:25:54;102045.78;;;1.10;69.18
35918;BME280;22011;59.912;30.300;2023-01-27T05:28:21;102051.13;;;1.08;68.83
35918;BME280;22011;59.912;30.300;2023-01-27T05:30:49;102053.13;;;1.03;69.66
35918;BME280;22011;59.912;30.300;2023-01-27T05:33:16;102049.09;;;0.96;69.75
35918;BME280;22011;59.912;30.300;2023-01-27T05:35:44;102057.91;;;0.95;69.41
35918;BME280;22011;59.912;30.300;2023-01-27T05:38:11;102061.50;;;0.92;69.83
35918;BME280;22011;59.912;30.300;2023-01-27T05:40:39;102064.44;;;0.86;69.87
35918;BME280;22011;59.912;30.300;2023-01-27T05:43:08;102061.50;;;0.92;69.04
35918;BME280;22011;59.912;30.300;2023-01-27T05:45:35;102071.78;;;0.97;69.39
35918;BME280;22011;59.912;30.300;2023-01-27T05:48:03;102067.25;;;1.01;69.49
35918;BME280;22011;59.912;30.300;2023-01-27T05:50:30;102078.53;;;1.03;67.90
35918;BME280;22011;59.912;30.300;2023-01-27T05:52:58;102076.75;;;1.03;67.86
35918;BME280;22011;59.912;30.300;2023-01-27T05:55:25;102071.09;;;0.93;69.00
35918;BME280;22011;59.912;30.300;2023-01-27T05:57:53;102072.88;;;0.93;67.29
35918;BME280;22011;59.912;30.300;2023-01-27T06:00:23;102071.22;;;0.90;68.51
35918;BME280;22011;59.912;30.300;2023-01-27T06:02:50;102079.19;;;0.89;67.60
35918;BME280;22011;59.912;30.300;2023-01-27T06:05:18;102093.94;;;0.91;67.90
35918;BME280;22011;59.912;30.300;2023-01-27T06:07:45;102095.69;;;0.91;68.98
35918;BME280;22011;59.912;30.300;2023-01-27T06:10:13;102098.69;;;0.83;68.89
35918;BME280;22011;59.912;30.300;2023-01-27T06:12:40;102109.88;;;0.87;69.48
35918;BME280;22011;59.912;30.300;2023-01-27T06:15:09;102107.84;;;0.93;70.64
35918;BME280;22011;59.912;30.300;2023-01-27T06:17:38;102111.88;;;1.01;70.64
35918;BME280;22011;59.912;30.300;2023-01-27T06:20:07;102119.59;;;1.04;69.73
35918;BME280;22011;59.912;30.300;2023-01-27T06:22:36;102120.34;;;1.06;69.20
35918;BME280;22011;59.912;30.300;2023-01-27T06:25:04;102116.59;;;1.11;69.17
35918;BME280;22011;59.912;30.300;2023-01-27T06:27:31;102119.44;;;1.07;69.39
35918;BME280;22011;59.912;30.300;2023-01-27T06:29:59;102116.34;;;0.98;69.49
35918;BME280;22011;59.912;30.300;2023-01-27T06:32:26;102125.13;;;0.97;69.73
35918;BME280;22011;59.912;30.300;2023-01-27T06:34:55;102121.44;;;1.02;68.63
35918;BME280;22011;59.912;30.300;2023-01-27T06:37:23;102125.69;;;1.04;67.71
35918;BME280;22011;59.912;30.300;2023-01-27T06:39:51;102138.13;;;1.01;67.77
35918;BME280;22011;59.912;30.300;2023-01-27T06:42:18;102136.63;;;0.95;68.98
35918;BME280;22011;59.912;30.300;2023-01-27T06:44:45;102145.41;;;0.94;69.53
35918;BME280;22011;59.912;30.300;2023-01-27T06:47:13;102150.88;;;0.89;69.50
35918;BME280;22011;59.912;30.300;2023-01-27T06:49:40;102155.47;;;0.84;69.96
35918;BME280;22011;59.912;30.300;2023-01-27T06:52:09;102152.06;;;0.82;69.48
35918;BME280;22011;59.912;30.300;2023-01-27T06:54:37;102155.63;;;0.81;69.63
35918;BME280;22011;59.912;30.300;2023-01-27T06:57:04;102149.84;;;0.73;69.96
35918;BME280;22011;59.912;30.300;2023-01-27T06:59:32;102156.16;;;0.69;70.63
35918;BME280;22011;59.912;30.300;2023-01-27T07:01:59;102161.41;;;0.69;70.55
35918;BME280;22011;59.912;30.300;2023-01-27T07:04:27;102163.91;;;0.72;70.35
35918;BME280;22011;59.912;30.300;2023-01-27T07:06:55;102172.22;;;0.82;70.30
35918;BME280;22011;59.912;30.300;2023-01-27T07:09:23;102175.81;;;0.79;69.51
35918;BME280;22011;59.912;30.300;2023-01-27T07:11:51;102173.34;;;0.76;69.32
35918;BME280;22011;59.912;30.300;2023-01-27T07:14:18;102179.63;;;0.72;69.21
35918;BME280;22011;59.912;30.300;2023-01-27T07:16:47;102181.34;;;0.73;69.42
35918;BME280;22011;59.912;30.300;2023-01-27T07:19:15;102191.50;;;0.81;69.38
35918;BME280;22011;59.912;30.300;2023-01-27T07:21:42;102186.66;;;0.72;68.69
35918;BME280;22011;59.912;30.300;2023-01-27T07:24:10;102187.69;;;0.68;68.96
35918;BME280;22011;59.912;30.300;2023-01-27T07:26:39;102195.09;;;0.78;69.64
35918;BME280;22011;59.912;30.300;2023-01-27T07:29:07;102195.88;;;0.80;70.02
35918;BME280;22011;59.912;30.300;2023-01-27T07:31:35;102200.22;;;0.81;69.56
35918;BME280;22011;59.912;30.300;2023-01-27T07:34:02;102206.38;;;0.80;68.66
35918;BME280;22011;59.912;30.300;2023-01-27T07:36:30;102206.31;;;0.82;68.32
35918;BME280;22011;59.912;30.300;2023-01-27T07:38:57;102206.25;;;0.83;69.01
35918;BME280;22011;59.912;30.300;2023-01-27T07:41:25;102209.22;;;0.76;69.14
35918;BME280;22011;59.912;30.300;2023-01-27T07:43:54;102220.56;;;0.76;70.12
35918;BME280;22011;59.912;30.300;2023-01-27T07:46:24;102216.16;;;0.77;70.50
35918;BME280;22011;59.912;30.300;2023-01-27T07:48:52;102224.03;;;0.77;70.54
35918;BME280;22011;59.912;30.300;2023-01-27T07:51:19;102232.75;;;0.77;70.81
35918;BME280;22011;59.912;30.300;2023-01-27T07:53:46;102227.50;;;0.77;70.78
35918;BME280;22011;59.912;30.300;2023-01-27T07:56:14;102227.78;;;0.71;69.46
35918;BME280;22011;59.912;30.300;2023-01-27T07:58:42;102236.63;;;0.69;69.49
35918;BME280;22011;59.912;30.300;2023-01-27T08:01:11;102242.47;;;0.75;69.61
35918;BME280;22011;59.912;30.300;2023-01-27T08:03:39;102251.19;;;0.76;69.79
35918;BME280;22011;59.912;30.300;2023-01-27T08:06:09;102259.25;;;0.71;69.85
35918;BME280;22011;59.912;30.300;2023-01-27T08:08:37;102243.06;;;0.61;69.58
35918;BME280;22011;59.912;30.300;2023-01-27T08:11:07;102252.81;;;0.58;69.94
35918;BME280;22011;59.912;30.300;2023-01-27T08:13:35;102256.22;;;0.60;70.64
35918;BME280;22011;59.912;30.300;2023-01-27T08:16:04;102256.88;;;0.65;71.03
35918;BME280;22011;59.912;30.300;2023-01-27T08:18:35;102257.81;;;0.64;70.23
35918;BME280;22011;59.912;30.300;2023-01-27T08:21:04;102257.81;;;0.64;69.61
35918;BME280;22011;59.912;30.300;2023-01-27T08:23:32;102269.88;;;0.68;69.89
35918;BME280;22011;59.912;30.300;2023-01-27T08:26:01;102269.81;;;0.70;69.05
35918;BME280;22011;59.912;30.300;2023-01-27T08:28:31;102263.91;;;0.64;69.10
35918;BME280;22011;59.912;30.300;2023-01-27T08:31:03;102269.09;;;0.66;69.15
35918;BME280;22011;59.912;30.300;2023-01-27T08:33:31;102263.25;;;0.59;69.98
35918;BME280;22011;59.912;30.300;2023-01-27T08:36:06;102268.88;;;0.71;70.99
35918;BME280;22011;59.912;30.300;2023-01-27T08:38:34;102274.53;;;0.61;70.11
35918;BME280;22011;59.912;30.300;2023-01-27T08:41:04;102275.97;;;0.69;70.16
35918;BME280;22011;59.912;30.300;2023-01-27T08:43:32;102283.00;;;0.68;70.28
35918;BME280;22011;59.912;30.300;2023-01-27T08:46:00;102285.88;;;0.62;69.65
35918;BME280;22011;59.912;30.300;2023-01-27T08:48:27;102279.03;;;0.58;69.62
35918;BME280;22011;59.912;30.300;2023-01-27T08:50:56;102296.69;;;0.54;69.88
35918;BME280;22011;59.912;30.300;2023-01-27T08:53:26;102293.13;;;0.55;70.10
35918;BME280;22011;59.912;30.300;2023-01-27T08:55:56;102310.72;;;0.53;69.67
35918;BME280;22011;59.912;30.300;2023-01-27T08:58:24;102293.31;;;0.51;69.68
35918;BME280;22011;59.912;30.300;2023-01-27T09:00:52;102298.31;;;0.57;69.18
35918;BME280;22011;59.912;30.300;2023-01-27T09:03:19;102297.03;;;0.67;70.10
35918;BME280;22011;59.912;30.300;2023-01-27T09:05:47;102297.03;;;0.67;69.29
35918;BME280;22011;59.912;30.300;2023-01-27T09:08:14;102296.97;;;0.69;69.50
35918;BME280;22011;59.912;30.300;2023-01-27T09:10:43;102302.66;;;0.58;69.67
35918;BME280;22011;59.912;30.300;2023-01-27T09:13:11;102305.09;;;0.41;69.00
35918;BME280;22011;59.912;30.300;2023-01-27T09:15:38;102309.31;;;0.45;70.12
35918;BME280;22011;59.912;30.300;2023-01-27T09:18:09;102302.78;;;0.55;69.11
35918;BME280;22011;59.912;30.300;2023-01-27T09:20:37;102294.66;;;0.61;68.79
35918;BME280;22011;59.912;30.300;2023-01-27T09:23:04;102290.31;;;0.60;69.03
35918;BME280;22011;59.912;30.300;2023-01-27T09:25:32;102300.03;;;0.58;69.94
35918;BME280;22011;59.912;30.300;2023-01-27T09:28:01;102294.78;;;0.58;69.24
35918;BME280;22011;59.912;30.300;2023-01-27T09:30:28;102295.03;;;0.52;69.53
35918;BME280;22011;59.912;30.300;2023-01-27T09:32:59;102304.47;;;0.56;70.26
35918;BME280;22011;59.912;30.300;2023-01-27T09:35:31;102299.78;;;0.64;69.43
35918;BME280;22011;59.912;30.300;2023-01-27T09:38:03;102299.25;;;0.76;68.96
35918;BME280;22011;59.912;30.300;2023-01-27T09:40:39;102299.91;;;0.81;69.44
35918;BME280;22011;59.912;30.300;2023-01-27T09:43:33;102296.06;;;0.90;70.01
35918;BME280;22011;59.912;30.300;2023-01-27T09:46:33;102316.91;;;0.93;70.39
35918;BME280;22011;59.912;30.300;2023-01-27T09:49:18;102311.94;;;0.87;70.30
35918;BME280;22011;59.912;30.300;2023-01-27T09:51:58;102314.03;;;0.79;70.13
35918;BME280;22011;59.912;30.300;2023-01-27T09:54:36;102319.59;;;0.71;70.57
35918;BME280;22011;59.912;30.300;2023-01-27T09:57:16;102319.91;;;0.63;70.65
35918;BME280;22011;59.912;30.300;2023-01-27T10:00:01;102331.19;;;0.65;70.85
35918;BME280;22011;59.912;30.300;2023-01-27T10:02:47;102335.31;;;0.71;71.39
35918;BME280;22011;59.912;30.300;2023-01-27T10:05:52;102323.84;;;0.74;70.94
35918;BME280;22011;59.912;30.300;2023-01-27T10:08:32;102315.44;;;0.65;71.34
35918;BME280;22011;59.912;30.300;2023-01-27T10:11:12;102317.16;;;0.67;71.90
35918;BME280;22011;59.912;30.300;2023-01-27T10:13:51;102322.53;;;0.63;71.21
35918;BME280;22011;59.912;30.300;2023-01-27T10:16:38;102314.22;;;0.74;71.32
35918;BME280;22011;59.912;30.300;2023-01-27T10:19:19;102314.53;;;0.67;71.03
35918;BME280;22011;59.912;30.300;2023-01-27T10:21:58;102312.56;;;0.72;71.38
35918;BME280;22011;59.912;30.300;2023-01-27T10:24:39;102318.06;;;0.65;70.71
35918;BME280;22011;59.912;30.300;2023-01-27T10:27:15;102314.84;;;0.59;70.87
35918;BME280;22011;59.912;30.300;2023-01-27T10:29:45;102325.41;;;0.57;71.28
35918;BME280;22011;59.912;30.300;2023-01-27T10:32:22;102331.13;;;0.67;71.84
35918;BME280;22011;59.912;30.300;2023-01-27T10:35:03;102335.50;;;0.67;71.09
35918;BME280;22011;59.912;30.300;2023-01-27T10:37:40;102332.91;;;0.67;71.55
35918;BME280;22011;59.912;30.300;2023-01-27T10:40:20;102336.31;;;0.69;70.56
35918;BME280;22011;59.912;30.300;2023-01-27T10:42:57;102326.59;;;0.71;69.75
35918;BME280;22011;59.912;30.300;2023-01-27T10:45:34;102334.41;;;0.72;70.01
35918;BME280;22011;59.912;30.300;2023-01-27T10:48:26;102341.84;;;0.83;70.56
35918;BME280;22011;59.912;30.300;2023-01-27T10:50:58;102335.13;;;0.76;69.41
35918;BME280;22011;59.912;30.300;2023-01-27T10:53:33;102336.97;;;0.74;69.74
35918;BME280;22011;59.912;30.300;2023-01-27T10:56:06;102340.22;;;0.58;70.08
35918;BME280;22011;59.912;30.300;2023-01-27T10:58:45;102342.00;;;0.58;70.86
35918;BME280;22011;59.912;30.300;2023-01-27T11:01:16;102348.66;;;0.45;70.08
35918;BME280;22011;59.912;30.300;2023-01-27T11:03:52;102332.47;;;0.55;70.35
35918;BME280;22011;59.912;30.300;2023-01-27T11:06:23;102330.53;;;0.60;69.33
35918;BME280;22011;59.912;30.300;2023-01-27T11:08:52;102335.63;;;0.63;69.35
35918;BME280;22011;59.912;30.300;2023-01-27T11:11:24;102342.72;;;0.61;69.43
35918;BME280;22011;59.912;30.300;2023-01-27T11:14:16;102347.97;;;0.61;69.99
35918;BME280;22011;59.912;30.300;2023-01-27T11:16:49;102348.34;;;0.52;69.80
35918;BME280;22011;59.912;30.300;2023-01-27T11:19:25;102345.72;;;0.52;69.96
35918;BME280;22011;59.912;30.300;2023-01-27T11:21:56;102356.25;;;0.51;69.03
35918;BME280;22011;59.912;30.300;2023-01-27T11:24:38;102356.03;;;0.57;69.08
35918;BME280;22011;59.912;30.300;2023-01-27T11:27:16;102361.16;;;0.60;69.94
35918;BME280;22011;59.912;30.300;2023-01-27T11:29:50;102361.63;;;0.48;69.25
35918;BME280;22011;59.912;30.300;2023-01-27T11:32:32;102361.88;;;0.42;69.66
35918;BME280;22011;59.912;30.300;2023-01-27T11:35:08;102373.94;;;0.24;69.54
35918;BME280;22011;59.912;30.300;2023-01-27T11:37:38;102367.56;;;0.08;69.68
35918;BME280;22011;59.912;30.300;2023-01-27T11:40:14;102368.13;;;0.16;70.73
35918;BME280;22011;59.912;30.300;2023-01-27T11:42:42;102379.78;;;0.09;70.39
35918;BME280;22011;59.912;30.300;2023-01-27T11:45:13;102371.72;;;0.13;70.83
35918;BME280;22011;59.912;30.300;2023-01-27T11:47:43;102376.75;;;0.19;70.96
35918;BME280;22011;59.912;30.300;2023-01-27T11:50:15;102370.09;;;0.32;70.17
35918;BME280;22011;59.912;30.300;2023-01-27T11:52:46;102377.50;;;0.45;70.13
35918;BME280;22011;59.912;30.300;2023-01-27T11:55:19;102378.59;;;0.39;69.61
35918;BME280;22011;59.912;30.300;2023-01-27T11:57:51;102391.63;;;0.41;69.99
35918;BME280;22011;59.912;30.300;2023-01-27T12:00:22;102381.38;;;0.35;70.02
35918;BME280;22011;59.912;30.300;2023-01-27T12:02:57;102392.06;;;0.30;70.17
35918;BME280;22011;59.912;30.300;2023-01-27T12:05:31;102404.44;;;0.26;70.18
35918;BME280;22011;59.912;30.300;2023-01-27T12:08:01;102407.41;;;0.17;69.64
35918;BME280;22011;59.912;30.300;2023-01-27T12:10:30;102407.84;;;0.28;70.54
35918;BME280;22011;59.912;30.300;2023-01-27T12:13:00;102414.13;;;0.24;69.96
35918;BME280;22011;59.912;30.300;2023-01-27T12:15:33;102411.97;;;0.12;69.67
35918;BME280;22011;59.912;30.300;2023-01-27T12:18:04;102403.19;;;0.13;70.19
35918;BME280;22011;59.912;30.300;2023-01-27T12:20:39;102404.03;;;0.14;70.41
35918;BME280;22011;59.912;30.300;2023-01-27T12:23:29;102405.41;;;0.24;70.95
35918;BME280;22011;59.912;30.300;2023-01-27T12:25:59;102398.13;;;0.09;70.45
35918;BME280;22011;59.912;30.300;2023-01-27T12:28:31;102399.81;;;0.10;70.70
35918;BME280;22011;59.912;30.300;2023-01-27T12:31:04;102404.03;;;0.14;70.24
35918;BME280;22011;59.912;30.300;2023-01-27T12:33:36;102401.59;;;0.09;70.00
35918;BME280;22011;59.912;30.300;2023-01-27T12:36:13;102410.13;;;0.14;70.89
35918;BME280;22011;59.912;30.300;2023-01-27T12:38:44;102409.50;;;0.08;71.19
35918;BME280;22011;59.912;30.300;2023-01-27T12:41:20;102413.56;;;0.16;71.55
35918;BME280;22011;59.912;30.300;2023-01-27T12:43:50;102408.06;;;0.22;70.57
35918;BME280;22011;59.912;30.300;2023-01-27T12:46:20;102411.25;;;0.30;70.07
35918;BME280;22011;59.912;30.300;2023-01-27T12:48:48;102408.78;;;0.49;70.41
35918;BME280;22011;59.912;30.300;2023-01-27T12:51:19;102423.81;;;0.22;70.12
35918;BME280;22011;59.912;30.300;2023-01-27T12:53:48;102422.16;;;0.20;70.62
35918;BME280;22011;59.912;30.300;2023-01-27T12:56:18;102427.41;;;0.20;70.87
35918;BME280;22011;59.912;30.300;2023-01-27T12:58:55;102411.50;;;0.24;71.12
35918;BME280;22011;59.912;30.300;2023-01-27T13:01:26;102420.50;;;0.17;71.92
35918;BME280;22011;59.912;30.300;2023-01-27T13:03:57;102428.59;;;0.11;71.85
35918;BME280;22011;59.912;30.300;2023-01-27T13:06:37;102423.34;;;0.35;72.51
35918;BME280;22011;59.912;30.300;2023-01-27T13:09:22;102423.56;;;0.28;71.22
35918;BME280;22011;59.912;30.300;2023-01-27T13:11:53;102422.56;;;0.09;70.37